Academy, Texas
Current Conditions -  °F | °C
As of 7:15 PM on Friday 31 Oct 2014 (Local Time) from KTPL Reporting Station
Clear Clear  
Wind Chill: 63°   Ceiling: Unl
Heat Index: 63°   Visibility: 10mi
Dew Point: 36°   Wind: 9mph
Humidity: 37%   Direction: 350°N
Pressure: 30.28"   Gusts: NA
Location:  30.9809°N, 97.3415°W
Report Text: KTPL 010015Z AUTO 35008KT 10SM CLR 17/02 A3028 RMK AO1
Loading
Personal Weather Stations






























Interactive Weather Map
Tropical Storm Tracking
New forecast layout! Learn more

10-Day Weather Forecast

Advertisements
Track Severe Weather on mobile